createdAt,value
2017-07-18T00:01:11.737Z,35.00
2017-07-18T00:03:39.161Z,34.70
2017-07-18T00:06:06.589Z,33.90
2017-07-18T00:08:34.013Z,34.70
2017-07-18T00:11:02.200Z,34.40
2017-07-18T00:13:29.624Z,33.50
2017-07-18T00:15:57.054Z,34.70
2017-07-18T00:18:24.486Z,35.00
2017-07-18T00:20:51.901Z,35.30
2017-07-18T00:23:19.348Z,35.50
2017-07-18T00:25:46.768Z,35.80
2017-07-18T00:28:14.202Z,35.80
2017-07-18T00:30:41.621Z,36.20
2017-07-18T00:33:09.080Z,36.10
2017-07-18T00:35:36.513Z,36.50
2017-07-18T00:38:03.949Z,37.20
2017-07-18T00:40:31.371Z,37.10
2017-07-18T00:42:58.796Z,37.60
2017-07-18T00:45:26.320Z,37.10
2017-07-18T00:47:53.758Z,37.10
2017-07-18T00:50:21.169Z,37.10
2017-07-18T00:52:48.590Z,37.10
2017-07-18T00:55:16.033Z,36.80
2017-07-18T00:57:43.542Z,36.30
2017-07-18T01:00:10.969Z,36.50
2017-07-18T01:02:38.389Z,38.10
2017-07-18T01:05:05.821Z,37.50
2017-07-18T01:07:34.013Z,38.20
2017-07-18T01:10:01.441Z,38.10
2017-07-18T01:12:28.852Z,37.80
2017-07-18T01:14:56.282Z,37.50
2017-07-18T01:17:23.738Z,37.20
2017-07-18T01:19:51.152Z,36.80
2017-07-18T01:22:18.580Z,37.50
2017-07-18T01:24:46.002Z,38.70
2017-07-18T01:27:13.432Z,38.00
2017-07-18T01:29:41.014Z,38.40
2017-07-18T01:32:08.451Z,38.50
2017-07-18T01:34:35.867Z,38.40
2017-07-18T01:37:03.288Z,39.00
2017-07-18T01:39:30.820Z,39.00
2017-07-18T01:41:59.017Z,39.60
2017-07-18T01:44:26.438Z,39.10
2017-07-18T01:46:53.860Z,38.70
2017-07-18T01:49:21.292Z,39.10
2017-07-18T01:51:48.733Z,39.90
2017-07-18T01:54:16.912Z,39.60
2017-07-18T01:56:44.367Z,39.60
2017-07-18T01:59:11.787Z,39.10
2017-07-18T02:01:39.208Z,40.20
2017-07-18T02:04:06.637Z,40.00
2017-07-18T02:06:34.067Z,40.80
2017-07-18T02:09:01.483Z,39.30
2017-07-18T02:11:28.909Z,39.80
2017-07-18T02:13:56.653Z,40.10
2017-07-18T02:16:24.075Z,40.10
2017-07-18T02:18:51.500Z,40.90
2017-07-18T02:21:18.911Z,40.90
2017-07-18T02:23:46.340Z,39.90
2017-07-18T02:26:13.762Z,40.50
2017-07-18T02:28:41.204Z,40.30
2017-07-18T02:31:08.604Z,40.90
2017-07-18T02:33:36.121Z,40.80
2017-07-18T02:36:03.532Z,41.00
2017-07-18T02:38:31.057Z,40.70
2017-07-18T02:40:58.463Z,40.70
2017-07-18T02:43:26.653Z,41.30
2017-07-18T02:45:54.088Z,41.30
2017-07-18T02:48:21.600Z,40.90
2017-07-18T02:50:49.021Z,40.50
2017-07-18T02:53:16.436Z,40.70
2017-07-18T02:55:43.868Z,40.70
2017-07-18T02:58:11.289Z,41.10
2017-07-18T03:00:38.716Z,41.30
2017-07-18T03:03:06.905Z,41.20
2017-07-18T03:05:34.341Z,41.20
2017-07-18T03:08:01.757Z,41.30
2017-07-18T03:10:29.190Z,41.60
2017-07-18T03:12:56.612Z,41.70
2017-07-18T03:15:24.812Z,41.50
2017-07-18T03:17:52.228Z,41.70
2017-07-18T03:20:19.653Z,42.00
2017-07-18T03:22:47.082Z,41.00
2017-07-18T03:25:14.520Z,42.20
2017-07-18T03:27:42.705Z,41.20
2017-07-18T03:30:10.124Z,41.00
2017-07-18T03:32:37.557Z,41.30
2017-07-18T03:35:04.980Z,41.90
2017-07-18T03:37:32.409Z,41.10
2017-07-18T03:40:00.597Z,40.40
2017-07-18T03:42:28.034Z,40.40
2017-07-18T03:44:55.449Z,40.70
2017-07-18T03:47:22.876Z,41.20
2017-07-18T03:49:50.301Z,41.70
2017-07-18T03:52:18.488Z,40.90
2017-07-18T03:54:45.915Z,41.10
2017-07-18T03:57:13.344Z,41.40
2017-07-18T03:59:40.766Z,42.20
2017-07-18T04:02:08.199Z,41.00
2017-07-18T04:04:36.423Z,41.20
2017-07-18T04:07:03.851Z,40.60
2017-07-18T04:09:31.260Z,42.00
2017-07-18T04:11:58.681Z,41.70
2017-07-18T04:14:26.109Z,40.60
2017-07-18T04:16:53.698Z,40.10
2017-07-18T04:19:21.128Z,39.70
2017-07-18T04:21:48.536Z,39.60
2017-07-18T04:24:15.963Z,39.30
2017-07-18T04:26:43.376Z,39.00
2017-07-18T04:29:11.570Z,38.50
2017-07-18T04:31:39.017Z,38.50
2017-07-18T04:34:06.440Z,38.20
2017-07-18T04:36:33.866Z,38.50
2017-07-18T04:39:01.333Z,39.10
2017-07-18T04:41:28.761Z,38.00
2017-07-18T04:43:56.189Z,36.80
2017-07-18T04:46:24.370Z,37.30
2017-07-18T04:48:51.802Z,37.20
2017-07-18T04:51:19.212Z,37.20
2017-07-18T04:53:46.631Z,36.90
2017-07-18T04:56:14.832Z,36.70
2017-07-18T04:58:42.250Z,36.70
2017-07-18T05:01:09.682Z,36.80
2017-07-18T05:03:37.096Z,36.80
2017-07-18T05:06:04.530Z,36.30
2017-07-18T05:08:32.713Z,37.20
2017-07-18T05:11:00.141Z,37.20
2017-07-18T05:13:27.553Z,37.10
2017-07-18T05:15:54.984Z,36.70
2017-07-18T05:18:22.403Z,37.50
2017-07-18T05:20:49.834Z,36.70
2017-07-18T05:23:17.256Z,36.50
2017-07-18T05:25:44.680Z,36.70
2017-07-18T05:28:12.104Z,36.50
2017-07-18T05:30:39.530Z,36.80
2017-07-18T05:33:06.944Z,37.30
2017-07-18T05:35:34.368Z,37.30
2017-07-18T05:38:01.789Z,36.80
2017-07-18T05:40:29.213Z,36.50
2017-07-18T05:42:57.398Z,36.30
2017-07-18T05:45:24.829Z,35.50
2017-07-18T05:47:52.252Z,36.50
2017-07-18T05:50:19.674Z,36.40
2017-07-18T05:52:47.106Z,34.50
2017-07-18T05:55:15.285Z,33.40
2017-07-18T05:57:42.718Z,33.30
2017-07-18T06:00:10.139Z,34.30
2017-07-18T06:02:37.575Z,33.40
2017-07-18T06:05:04.989Z,33.50
2017-07-18T06:07:32.421Z,32.90
2017-07-18T06:09:59.832Z,34.50
2017-07-18T06:12:27.265Z,35.50
2017-07-18T06:14:54.680Z,35.60
2017-07-18T06:17:22.129Z,34.70
2017-07-18T06:19:49.543Z,35.30
2017-07-18T06:22:16.986Z,35.30
2017-07-18T06:24:44.400Z,34.00
2017-07-18T06:27:11.826Z,33.90
2017-07-18T06:29:39.316Z,34.80
2017-07-18T06:32:06.742Z,32.60
2017-07-18T06:34:34.233Z,32.50
2017-07-18T06:37:01.658Z,31.20
2017-07-18T06:39:29.095Z,32.00
2017-07-18T06:41:57.281Z,34.40
2017-07-18T06:44:24.715Z,34.30
2017-07-18T06:46:52.134Z,34.50
2017-07-18T06:49:19.555Z,32.90
2017-07-18T06:51:46.983Z,31.70
2017-07-18T06:54:15.181Z,32.40
2017-07-18T06:56:42.601Z,32.30
2017-07-18T06:59:10.020Z,32.40
2017-07-18T07:01:37.453Z,32.30
2017-07-18T07:04:04.868Z,32.90
2017-07-18T07:06:33.060Z,31.90
2017-07-18T07:09:00.486Z,31.80
2017-07-18T07:11:27.918Z,31.50
2017-07-18T07:13:55.332Z,32.00
2017-07-18T07:16:22.769Z,32.30
2017-07-18T07:18:50.948Z,30.40
2017-07-18T07:21:18.394Z,30.20
2017-07-18T07:23:45.806Z,30.50
2017-07-18T07:26:13.246Z,29.60
2017-07-18T07:28:40.663Z,29.90
2017-07-18T07:31:08.874Z,31.30
2017-07-18T07:33:36.315Z,30.80
2017-07-18T07:36:03.734Z,29.70
2017-07-18T07:38:31.157Z,29.50
2017-07-18T07:40:58.588Z,29.70
2017-07-18T07:43:26.042Z,29.40
2017-07-18T07:45:54.219Z,28.80
2017-07-18T07:48:21.660Z,28.80
2017-07-18T07:50:49.059Z,28.30
2017-07-18T07:53:16.509Z,28.60
2017-07-18T07:55:43.947Z,28.60
2017-07-18T07:58:11.368Z,28.30
2017-07-18T08:00:39.557Z,28.10
2017-07-18T08:03:06.984Z,28.10
2017-07-18T08:05:34.410Z,28.30
2017-07-18T08:08:01.857Z,27.90
2017-07-18T08:10:29.276Z,27.60
2017-07-18T08:12:56.701Z,27.90
2017-07-18T08:15:24.124Z,27.60
2017-07-18T08:17:51.563Z,27.30
2017-07-18T08:20:18.993Z,27.10
2017-07-18T08:22:46.404Z,26.80
2017-07-18T08:25:13.852Z,26.80
2017-07-18T08:27:41.271Z,26.80
2017-07-18T08:30:08.701Z,27.50
2017-07-18T08:32:36.120Z,27.70
2017-07-18T08:35:03.577Z,26.80
2017-07-18T08:37:31.050Z,26.70
2017-07-18T08:39:58.475Z,26.50
2017-07-18T08:42:25.888Z,25.60
2017-07-18T08:44:54.079Z,25.10
2017-07-18T08:47:21.517Z,25.10
2017-07-18T08:49:48.944Z,25.70
2017-07-18T08:52:16.368Z,26.20
2017-07-18T08:54:43.792Z,26.10
2017-07-18T08:57:11.232Z,25.60
2017-07-18T08:59:39.495Z,25.10
2017-07-18T09:02:06.888Z,25.00
2017-07-18T09:04:34.304Z,24.90
2017-07-18T09:07:01.732Z,25.10
2017-07-18T09:09:29.144Z,25.10
2017-07-18T09:11:56.586Z,24.70
2017-07-18T09:14:24.764Z,25.30
2017-07-18T09:16:52.188Z,24.70
2017-07-18T09:19:19.612Z,24.60
2017-07-18T09:21:47.175Z,24.20
2017-07-18T09:24:14.612Z,23.40
2017-07-18T09:26:42.041Z,23.30
2017-07-18T09:29:09.456Z,23.50
2017-07-18T09:31:36.885Z,23.20
2017-07-18T09:34:04.329Z,23.80
2017-07-18T09:36:32.505Z,23.90
2017-07-18T09:38:59.925Z,23.90
2017-07-18T09:41:27.348Z,23.00
2017-07-18T09:43:54.792Z,22.60
2017-07-18T09:46:22.209Z,23.40
2017-07-18T09:48:50.400Z,23.40
2017-07-18T09:51:17.816Z,23.30
2017-07-18T09:53:45.245Z,22.50
2017-07-18T09:56:12.664Z,22.50
2017-07-18T09:58:40.092Z,20.80
2017-07-18T10:01:08.272Z,21.80
2017-07-18T10:03:35.700Z,21.20
2017-07-18T10:06:03.229Z,20.80
2017-07-18T10:08:30.676Z,19.80
2017-07-18T10:10:58.103Z,18.90
2017-07-18T10:13:25.571Z,20.60
2017-07-18T10:15:52.997Z,20.70
2017-07-18T10:18:20.428Z,19.10
2017-07-18T10:20:47.864Z,18.30
2017-07-18T10:23:15.281Z,18.10
2017-07-18T10:25:43.481Z,16.10
2017-07-18T10:28:10.906Z,16.00
2017-07-18T10:30:38.343Z,16.60
2017-07-18T10:33:05.760Z,18.80
2017-07-18T10:35:33.193Z,17.30
2017-07-18T10:38:00.618Z,17.50
2017-07-18T10:40:28.074Z,16.30
2017-07-18T10:42:55.487Z,14.50
2017-07-18T10:45:22.922Z,14.00
2017-07-18T10:47:50.335Z,16.10
2017-07-18T10:50:17.931Z,18.80
2017-07-18T10:52:45.359Z,18.20
2017-07-18T10:55:13.545Z,14.20
2017-07-18T10:57:40.974Z,14.40
2017-07-18T11:00:08.389Z,13.50
2017-07-18T11:02:35.812Z,17.30
2017-07-18T11:05:03.997Z,16.10
2017-07-18T11:07:31.428Z,16.00
2017-07-18T11:09:58.848Z,13.20
2017-07-18T11:12:26.388Z,15.50
2017-07-18T11:14:53.812Z,13.20
2017-07-18T11:17:21.288Z,13.90
2017-07-18T11:19:48.689Z,14.80
2017-07-18T11:22:16.119Z,11.90
2017-07-18T11:24:43.541Z,13.00
2017-07-18T11:27:10.968Z,13.40
2017-07-18T11:29:38.391Z,10.00
2017-07-18T11:32:05.813Z,11.40
2017-07-18T11:34:33.245Z,11.10
2017-07-18T11:37:00.668Z,12.90
2017-07-18T11:39:28.104Z,12.40
2017-07-18T11:41:55.516Z,9.40
2017-07-18T11:44:22.941Z,8.70
2017-07-18T11:46:50.355Z,9.60
2017-07-18T11:49:17.780Z,12.60
2017-07-18T11:51:45.971Z,9.10
2017-07-18T11:54:13.392Z,9.10
2017-07-18T11:56:40.806Z,9.00
2017-07-18T11:59:08.225Z,7.00
2017-07-18T12:01:36.412Z,8.20
2017-07-18T12:04:03.824Z,8.20
2017-07-18T12:06:31.279Z,10.30
2017-07-18T12:08:58.680Z,9.30
2017-07-18T12:11:26.113Z,11.60
2017-07-18T12:13:54.305Z,10.30
2017-07-18T12:16:21.759Z,10.20
2017-07-18T12:19:00.796Z,9.50
2017-07-18T12:21:28.216Z,8.40
2017-07-18T12:23:56.397Z,7.10
2017-07-18T12:26:23.844Z,7.10
2017-07-18T12:28:51.260Z,6.40
2017-07-18T12:31:18.688Z,6.80
2017-07-18T12:33:46.110Z,6.00
2017-07-18T12:36:13.560Z,6.30
2017-07-18T12:38:40.975Z,6.70
2017-07-18T12:41:08.388Z,6.10
2017-07-18T12:43:35.810Z,5.00
2017-07-18T12:46:03.238Z,7.10
2017-07-18T12:48:30.655Z,7.00
2017-07-18T12:50:58.077Z,5.60
2017-07-18T12:53:25.507Z,5.70
2017-07-18T12:55:52.916Z,3.50
2017-07-18T12:58:21.113Z,3.50
2017-07-18T13:00:48.527Z,3.30
2017-07-18T13:03:15.948Z,3.70
2017-07-18T13:05:43.369Z,3.10
2017-07-18T13:08:11.560Z,1.00
2017-07-18T13:10:38.976Z,1.00
2017-07-18T13:13:06.405Z,1.30
2017-07-18T13:15:33.816Z,1.00
2017-07-18T13:18:01.242Z,1.00
2017-07-18T13:20:28.669Z,1.00
2017-07-18T13:22:56.085Z,1.00
2017-07-18T13:25:23.508Z,1.00
2017-07-18T13:27:50.937Z,1.00
2017-07-18T13:30:18.385Z,1.00
2017-07-18T13:32:45.809Z,1.00
2017-07-18T13:35:13.240Z,1.00
2017-07-18T13:37:40.651Z,1.00
2017-07-18T13:40:08.075Z,1.00
2017-07-18T13:42:35.493Z,1.00
2017-07-18T13:45:02.922Z,1.00
2017-07-18T13:47:30.344Z,1.00
2017-07-18T13:49:57.762Z,1.00
2017-07-18T13:52:25.180Z,1.00
2017-07-18T13:54:52.600Z,1.00
2017-07-18T13:57:20.028Z,1.00
2017-07-18T13:59:47.448Z,1.00
2017-07-18T14:02:14.872Z,1.00
2017-07-18T14:04:42.284Z,1.00
2017-07-18T14:07:09.708Z,1.00
2017-07-18T14:09:37.117Z,1.00
2017-07-18T14:12:04.544Z,1.00
2017-07-18T14:14:31.956Z,1.00
2017-07-18T14:16:59.396Z,1.00
2017-07-18T14:19:26.817Z,1.00
2017-07-18T14:21:54.232Z,1.00
2017-07-18T14:24:21.805Z,1.00
2017-07-18T14:26:49.221Z,1.00
2017-07-18T14:29:16.668Z,1.00
2017-07-18T14:31:44.084Z,1.00
2017-07-18T14:34:11.508Z,1.00
2017-07-18T14:36:38.921Z,1.00
2017-07-18T14:39:07.117Z,1.00
2017-07-18T14:41:34.537Z,1.00
2017-07-18T14:44:01.960Z,1.00
2017-07-18T14:46:29.372Z,1.00
2017-07-18T14:48:57.568Z,1.00
2017-07-18T14:51:24.989Z,1.00
2017-07-18T14:53:52.417Z,1.00
2017-07-18T14:56:19.831Z,1.00
2017-07-18T14:58:47.273Z,1.00
2017-07-18T15:01:15.456Z,1.00
2017-07-18T15:06:16.692Z,1.00
2017-07-18T15:08:44.871Z,1.00
2017-07-18T15:11:12.301Z,1.00
2017-07-18T15:13:39.712Z,1.00
2017-07-18T15:16:07.141Z,1.00
2017-07-18T15:18:35.324Z,1.00
2017-07-18T15:21:02.748Z,1.00
2017-07-18T15:23:30.168Z,1.00
2017-07-18T15:25:57.724Z,1.00
2017-07-18T15:28:25.136Z,1.00
2017-07-18T15:30:52.565Z,1.00
2017-07-18T15:33:19.976Z,1.00
2017-07-18T15:35:47.448Z,1.00
2017-07-18T15:38:14.864Z,1.00
2017-07-18T15:40:43.053Z,1.00
2017-07-18T15:43:10.463Z,1.00
2017-07-18T15:45:37.884Z,1.00
2017-07-18T15:48:05.304Z,1.00
2017-07-18T15:50:33.487Z,1.00
2017-07-18T15:53:00.904Z,1.00
2017-07-18T15:55:28.349Z,1.00
2017-07-18T15:57:55.768Z,1.00
2017-07-18T16:00:23.197Z,1.00
2017-07-18T16:02:51.386Z,1.00
2017-07-18T16:05:18.813Z,1.00
2017-07-18T16:07:46.224Z,1.00
2017-07-18T16:10:13.639Z,1.00
2017-07-18T16:12:41.067Z,1.00
2017-07-18T16:15:08.516Z,1.00
2017-07-18T16:17:35.956Z,1.00
2017-07-18T16:20:03.368Z,1.00
2017-07-18T16:22:30.788Z,1.00
2017-07-18T16:24:58.206Z,1.00
2017-07-18T16:27:25.637Z,1.00
2017-07-18T16:29:53.048Z,1.00
2017-07-18T16:32:20.483Z,1.00
2017-07-18T16:34:47.903Z,1.00
2017-07-18T16:37:15.312Z,1.00
2017-07-18T16:39:42.737Z,1.00
2017-07-18T16:42:10.157Z,1.00
2017-07-18T16:44:37.803Z,1.00
2017-07-18T16:47:05.275Z,1.40
2017-07-18T16:49:32.685Z,1.40
2017-07-18T16:52:00.104Z,1.60
2017-07-18T16:54:27.527Z,1.70
2017-07-18T16:56:55.735Z,1.60
2017-07-18T16:59:23.164Z,1.50
2017-07-18T17:01:50.586Z,1.60
2017-07-18T17:04:18.021Z,1.70
2017-07-18T17:06:45.440Z,1.50
2017-07-18T17:09:12.864Z,1.50
2017-07-18T17:11:40.282Z,1.80
2017-07-18T17:14:07.710Z,2.30
2017-07-18T17:16:35.140Z,2.20
2017-07-18T17:19:02.801Z,2.30
2017-07-18T17:21:30.216Z,1.00
2017-07-18T17:23:57.648Z,1.00
2017-07-18T17:26:25.072Z,1.60
2017-07-18T17:28:52.508Z,2.20
2017-07-18T17:31:19.933Z,2.30
2017-07-18T17:33:48.165Z,2.20
2017-07-18T17:36:15.593Z,1.80
2017-07-18T17:38:43.004Z,1.00
2017-07-18T17:41:11.186Z,1.80
2017-07-18T17:43:38.599Z,2.70
2017-07-18T17:46:06.040Z,1.40
2017-07-18T17:48:33.465Z,1.00
2017-07-18T17:51:00.887Z,1.70
2017-07-18T17:53:28.310Z,2.80
2017-07-18T17:55:55.738Z,3.50
2017-07-18T17:58:23.157Z,3.00
2017-07-18T18:00:50.589Z,3.40
2017-07-18T18:03:18.004Z,3.50
2017-07-18T18:05:45.432Z,3.30
2017-07-18T18:08:12.852Z,3.30
2017-07-18T18:10:41.059Z,4.00
2017-07-18T18:13:08.484Z,4.00
2017-07-18T18:15:35.908Z,3.80
2017-07-18T18:18:03.324Z,4.00
2017-07-18T18:20:30.800Z,4.70
2017-07-18T18:22:58.212Z,5.00
2017-07-18T18:25:25.660Z,5.10
2017-07-18T18:27:53.058Z,6.40
2017-07-18T18:30:20.477Z,5.50
2017-07-18T18:32:48.693Z,6.20
2017-07-18T18:35:16.107Z,6.20
2017-07-18T18:37:43.527Z,6.80
2017-07-18T18:40:10.944Z,8.60
2017-07-18T18:42:38.385Z,8.50
2017-07-18T18:45:06.557Z,7.20
2017-07-18T18:47:33.985Z,7.10
2017-07-18T18:50:01.413Z,7.40
2017-07-18T18:52:28.866Z,7.20
2017-07-18T18:54:56.428Z,7.70
2017-07-18T18:57:23.850Z,7.80
2017-07-18T18:59:52.783Z,9.60
2017-07-18T19:02:20.203Z,10.20
2017-07-18T19:04:47.621Z,9.60
2017-07-18T19:07:15.799Z,9.60
2017-07-18T19:09:43.216Z,9.60
2017-07-18T19:12:10.637Z,9.90
2017-07-18T19:14:38.121Z,9.60
2017-07-18T19:17:05.544Z,10.20
2017-07-18T19:19:32.976Z,10.50
2017-07-18T19:22:01.179Z,10.40
2017-07-18T19:24:28.649Z,10.40
2017-07-18T19:26:56.057Z,10.40
2017-07-18T19:29:23.480Z,10.80
2017-07-18T19:31:50.915Z,10.50
2017-07-18T19:34:18.332Z,10.90
2017-07-18T19:36:46.533Z,11.70
2017-07-18T19:39:13.951Z,11.60
2017-07-18T19:41:41.468Z,12.60
2017-07-18T19:44:08.887Z,12.50
2017-07-18T19:46:36.322Z,15.20
2017-07-18T19:49:03.741Z,16.20
2017-07-18T19:51:31.299Z,16.20
2017-07-18T19:53:58.721Z,17.00
2017-07-18T19:56:26.147Z,16.80
2017-07-18T19:58:53.573Z,17.30
2017-07-18T20:01:21.005Z,16.90
2017-07-18T20:03:48.420Z,17.30
2017-07-18T20:06:16.613Z,17.80
2017-07-18T20:08:44.032Z,17.70
2017-07-18T20:11:11.476Z,17.60
2017-07-18T20:13:38.899Z,17.90
2017-07-18T20:16:06.317Z,18.60
2017-07-18T20:18:34.520Z,18.50
2017-07-18T20:21:01.945Z,18.50
2017-07-18T20:23:29.376Z,18.70
2017-07-18T20:25:56.795Z,18.80
2017-07-18T20:28:24.216Z,19.30
2017-07-18T20:30:51.636Z,18.90
2017-07-18T20:33:19.072Z,19.40
2017-07-18T20:35:46.497Z,19.30
2017-07-18T20:38:14.127Z,19.60
2017-07-18T20:40:41.549Z,19.60
2017-07-18T20:43:08.972Z,19.80
2017-07-18T20:45:36.397Z,19.80
2017-07-18T20:48:04.637Z,20.00
2017-07-18T20:50:32.044Z,20.00
2017-07-18T20:52:59.471Z,20.40
2017-07-18T20:55:26.897Z,20.40
2017-07-18T20:57:54.339Z,20.50
2017-07-18T21:00:21.765Z,20.90
2017-07-18T21:02:49.189Z,20.50
2017-07-18T21:05:16.612Z,21.00
2017-07-18T21:07:44.041Z,20.20
2017-07-18T21:10:11.487Z,20.90
2017-07-18T21:12:38.904Z,21.40
2017-07-18T21:15:06.343Z,21.70
2017-07-18T21:17:33.778Z,21.80
2017-07-18T21:20:01.200Z,21.70
2017-07-18T21:22:28.621Z,21.60
2017-07-18T21:24:56.075Z,22.10
2017-07-18T21:27:23.506Z,21.20
2017-07-18T21:29:51.044Z,22.00
2017-07-18T21:32:18.464Z,22.70
2017-07-18T21:34:45.893Z,22.90
2017-07-18T21:37:13.308Z,22.70
2017-07-18T21:39:40.756Z,23.40
2017-07-18T21:42:08.185Z,22.10
2017-07-18T21:47:09.400Z,21.70
2017-07-18T21:49:36.820Z,21.20
2017-07-18T21:52:04.249Z,21.10
2017-07-18T21:54:31.672Z,21.20
2017-07-18T21:56:59.100Z,21.30
2017-07-18T21:59:26.530Z,21.40
2017-07-18T22:01:54.728Z,21.30
2017-07-18T22:04:22.144Z,21.30
2017-07-18T22:06:49.572Z,21.50
2017-07-18T22:09:17.013Z,21.90
2017-07-18T22:11:44.440Z,21.90
2017-07-18T22:14:11.865Z,22.30
2017-07-18T22:16:39.301Z,22.20
2017-07-18T22:19:06.725Z,22.40
2017-07-18T22:21:34.158Z,22.80
2017-07-18T22:24:01.760Z,23.00
2017-07-18T22:26:29.190Z,23.00
2017-07-18T22:28:56.684Z,23.40
2017-07-18T22:31:24.113Z,23.40
2017-07-18T22:33:51.534Z,23.50
2017-07-18T22:36:19.725Z,24.20
2017-07-18T22:38:47.151Z,24.10
2017-07-18T22:41:14.576Z,24.10
2017-07-18T22:43:42.004Z,23.70
2017-07-18T22:46:09.429Z,23.60
2017-07-18T22:48:37.633Z,23.50
2017-07-18T22:51:05.048Z,23.50
2017-07-18T22:53:32.486Z,23.30
2017-07-18T22:55:59.909Z,23.20
2017-07-18T22:58:27.339Z,23.30
2017-07-18T23:00:54.760Z,23.70
2017-07-18T23:03:22.199Z,23.60
2017-07-18T23:05:49.621Z,23.30
2017-07-18T23:08:17.057Z,23.20
2017-07-18T23:10:44.476Z,23.70
2017-07-18T23:13:11.918Z,23.80
2017-07-18T23:15:39.336Z,23.30
2017-07-18T23:18:06.771Z,23.70
2017-07-18T23:20:34.194Z,24.00
2017-07-18T23:23:01.624Z,23.70
2017-07-18T23:25:29.053Z,23.70
2017-07-18T23:27:57.220Z,24.10
2017-07-18T23:30:24.657Z,24.10
2017-07-18T23:32:52.077Z,24.10
2017-07-18T23:35:19.518Z,24.20
2017-07-18T23:37:47.011Z,24.10
2017-07-18T23:40:14.444Z,24.00
2017-07-18T23:42:41.872Z,23.10
2017-07-18T23:45:09.291Z,23.80
2017-07-18T23:47:37.490Z,24.40
2017-07-18T23:50:04.912Z,24.40
2017-07-18T23:52:32.335Z,24.70
2017-07-18T23:54:59.765Z,25.00
2017-07-18T23:57:27.183Z,25.10
2017-07-18T23:59:54.624Z,24.60
